Time;durP1;ratioP1;P1;durP2;ratioP2;P2;SDS_P1;SDS_P2;PMS_P1;PMS_P2;Temp;Humidity;BMP_temperature;BMP_pressure;BME280_temperature;BME280_humidity;BME280_pressure;Samples;Min_cycle;Max_cycle;Signal;HPM_P1;HPM_P2
2023/09/28 00:02:22;;;;;;;15.38;13.88;;;15.90;81.00;;;14.91;100.00;96186.72;6043856;23;20256;-73
2023/09/28 00:04:48;;;;;;;15.85;13.95;;;15.80;81.10;;;14.86;100.00;96171.50;6066777;23;20029;-72
2023/09/28 00:07:14;;;;;;;15.55;13.98;;;15.80;81.00;;;14.85;100.00;96180.47;6067341;23;20010;-72
2023/09/28 00:09:40;;;;;;;15.98;14.27;;;15.80;81.60;;;14.77;100.00;96175.44;6019399;23;20555;-72
2023/09/28 00:12:06;;;;;;;15.10;13.50;;;15.70;81.90;;;14.78;100.00;96185.00;6042699;23;20038;-72
2023/09/28 00:14:31;;;;;;;14.57;13.15;;;15.70;82.20;;;14.80;100.00;96182.13;6040572;23;20018;-72
2023/09/28 00:16:57;;;;;;;17.10;13.20;;;15.70;82.10;;;14.78;100.00;96187.66;6066828;23;20848;-73
2023/09/28 00:19:25;;;;;;;14.20;12.70;;;15.80;81.90;;;14.74;100.00;96183.81;6066937;23;20046;-71
2023/09/28 00:21:51;;;;;;;12.82;11.52;;;15.70;81.90;;;14.73;100.00;96182.19;6066797;23;20009;-71
2023/09/28 00:24:17;;;;;;;14.07;11.70;;;15.70;82.00;;;14.75;100.00;96187.25;6067450;23;20046;-73
2023/09/28 00:26:43;;;;;;;13.60;11.82;;;15.80;82.00;;;14.74;100.00;96193.59;6066574;23;20046;-73
2023/09/28 00:29:08;;;;;;;13.23;11.80;;;15.70;81.80;;;14.72;100.00;96185.84;6018336;23;20053;-72
2023/09/28 00:31:34;;;;;;;12.52;11.23;;;15.70;81.70;;;14.70;100.00;96183.38;6068402;23;20367;-73
2023/09/28 00:34:00;;;;;;;13.40;12.00;;;15.70;82.00;;;14.70;100.00;96191.34;6066918;23;20042;-72
2023/09/28 00:36:25;;;;;;;13.18;11.23;;;15.70;81.90;;;14.68;100.00;96184.63;6065530;23;20053;-73
2023/09/28 00:38:51;;;;;;;12.77;11.38;;;15.60;82.00;;;14.65;100.00;96191.16;6042528;23;20828;-73
2023/09/28 00:41:18;;;;;;;13.55;11.85;;;15.60;81.90;;;14.63;100.00;96182.63;6065749;23;20105;-72
2023/09/28 00:43:44;;;;;;;16.42;11.52;;;15.60;82.00;;;14.60;100.00;96179.59;6066099;23;20019;-73
2023/09/28 00:46:14;;;;;;;12.77;11.57;;;15.50;82.50;;;14.56;100.00;96187.16;6042403;23;20018;-72
2023/09/28 00:48:58;;;;;;;12.77;11.38;;;15.50;82.50;;;14.54;100.00;96183.09;6019064;23;20045;-72
2023/09/28 00:51:26;;;;;;;14.32;11.25;;;15.50;82.60;;;14.51;100.00;96194.91;6045097;23;20019;-73
2023/09/28 00:53:52;;;;;;;14.50;11.45;;;15.50;82.50;;;14.50;100.00;96193.31;6019166;23;20500;-72
2023/09/28 00:56:22;;;;;;;13.32;11.18;;;15.50;82.50;;;14.48;100.00;96203.25;6066033;23;20049;-72
2023/09/28 00:58:50;;;;;;;12.32;10.80;;;15.50;82.30;;;14.47;100.00;96193.69;6043351;23;20479;-72
2023/09/28 01:01:15;;;;;;;13.68;11.10;;;15.50;82.30;;;14.43;100.00;96192.50;6019349;23;20173;-71
2023/09/28 01:03:41;;;;;;;12.73;10.90;;;15.50;82.30;;;14.40;100.00;96198.19;6042169;23;20053;-71
2023/09/28 01:06:08;;;;;;;12.52;11.00;;;15.40;82.50;;;14.38;100.00;96194.94;6041524;23;20026;-74
2023/09/28 01:08:33;;;;;;;12.85;11.55;;;15.40;82.70;;;14.36;100.00;96194.34;6037561;23;20102;-72
2023/09/28 01:10:59;;;;;;;12.48;10.52;;;15.40;82.50;;;14.34;100.00;96193.72;6045419;23;20022;-73
2023/09/28 01:13:27;;;;;;;13.10;11.27;;;15.40;82.60;;;14.34;100.00;96202.50;6062997;23;20037;-71
2023/09/28 01:15:52;;;;;;;12.77;11.23;;;15.40;82.40;;;14.34;100.00;96196.38;6066297;23;20013;-72
2023/09/28 01:18:19;;;;;;;13.55;11.65;;;15.40;82.20;;;14.32;100.00;96203.72;6067461;23;20129;-71
2023/09/28 01:20:47;;;;;;;17.02;11.25;;;15.40;82.10;;;14.28;100.00;96207.81;6017987;23;20019;-71
2023/09/28 01:23:13;;;;;;;12.93;11.60;;;15.30;82.00;;;14.24;100.00;96206.59;6043923;23;20022;-72
2023/09/28 01:25:39;;;;;;;12.07;10.77;;;15.20;82.30;;;14.21;100.00;96207.00;6018682;23;20070;-72
2023/09/28 01:28:06;;;;;;;12.20;10.93;;;15.20;82.40;;;14.20;100.00;96208.03;6041911;23;20023;-72
2023/09/28 01:30:32;;;;;;;13.30;11.90;;;15.20;82.40;;;14.18;100.00;96204.78;6065140;23;20587;-72
2023/09/28 01:32:57;;;;;;;12.48;11.27;;;15.20;82.50;;;14.17;100.00;96205.81;6066430;23;20197;-72
2023/09/28 01:35:23;;;;;;;13.18;11.65;;;15.20;82.40;;;14.15;100.00;96199.91;6066995;23;20531;-72
2023/09/28 01:37:52;;;;;;;16.27;12.20;;;15.10;82.50;;;14.13;100.00;96204.59;6042336;23;20045;-72
2023/09/28 01:40:18;;;;;;;13.40;10.80;;;15.10;82.70;;;14.12;100.00;96195.03;6069052;23;20017;-72
2023/09/28 01:42:43;;;;;;;14.43;12.90;;;15.20;82.60;;;14.12;100.00;96200.31;6061707;23;20098;-73
2023/09/28 01:45:09;;;;;;;14.95;12.30;;;15.20;83.00;;;14.12;100.00;96205.63;6040660;23;20364;-72
2023/09/28 01:47:35;;;;;;;15.90;14.02;;;15.20;83.10;;;14.10;100.00;96204.00;6036398;23;20421;-72
2023/09/28 01:50:03;;;;;;;18.02;12.52;;;15.20;83.20;;;14.12;100.00;96205.63;6033397;23;20073;-72
2023/09/28 01:52:29;;;;;;;14.68;12.90;;;15.10;83.40;;;14.08;100.00;96206.03;6085648;23;20019;-71
2023/09/28 01:54:54;;;;;;;14.52;12.95;;;15.10;83.90;;;14.09;100.00;96202.38;6072305;23;20026;-72
2023/09/28 01:57:20;;;;;;;15.00;13.50;;;15.10;84.00;;;14.10;100.00;96206.63;6078791;23;20025;-72
2023/09/28 01:59:46;;;;;;;16.85;13.77;;;15.10;83.90;;;14.08;100.00;96206.03;6104529;23;20019;-72
2023/09/28 02:02:12;;;;;;;14.98;13.27;;;15.10;84.20;;;14.05;100.00;96201.16;6098598;23;20014;-72
2023/09/28 02:04:38;;;;;;;13.80;12.32;;;15.10;84.30;;;14.04;100.00;96204.84;6100868;23;20006;-72
2023/09/28 02:07:04;;;;;;;17.10;13.15;;;15.10;84.20;;;14.04;100.00;96204.84;6080190;23;20022;-72
2023/09/28 02:09:33;;;;;;;13.35;11.98;;;15.10;84.00;;;14.01;100.00;96199.94;6103110;23;20033;-72
2023/09/28 02:12:00;;;;;;;14.10;12.13;;;15.10;83.90;;;14.01;100.00;96213.16;6099777;23;20030;-73
2023/09/28 02:14:26;;;;;;;12.48;10.43;;;15.00;83.90;;;13.97;100.00;96204.03;6072030;23;20091;-73
2023/09/28 02:16:52;;;;;;;12.68;11.40;;;15.10;83.90;;;13.94;100.00;96204.44;6093645;23;20010;-72
2023/09/28 02:19:18;;;;;;;12.95;11.57;;;15.00;84.00;;;13.94;100.00;96207.09;6092292;23;20041;-72
2023/09/28 02:21:43;;;;;;;13.13;11.80;;;15.10;83.70;;;13.94;100.00;96203.63;6063949;23;20616;-72
2023/09/28 02:24:10;;;;;;;14.13;11.52;;;15.00;83.90;;;13.91;100.00;96215.44;6084730;23;20038;-72
2023/09/28 02:26:36;;;;;;;11.98;10.77;;;14.90;84.00;;;13.89;100.00;96214.03;6091185;23;20326;-72
2023/09/28 02:29:02;;;;;;;16.95;11.25;;;15.00;83.90;;;13.85;100.00;96207.53;6091755;23;20018;-72
2023/09/28 02:31:28;;;;;;;12.05;10.85;;;14.90;83.80;;;13.86;100.00;96209.97;6043377;23;20011;-72
2023/09/28 02:33:54;;;;;;;12.07;10.65;;;14.90;83.80;;;13.86;100.00;96211.78;6044352;23;19998;-72
2023/09/28 02:36:20;;;;;;;11.57;10.38;;;15.00;83.80;;;13.84;100.00;96211.19;6043052;23;20014;-72
2023/09/28 02:38:46;;;;;;;13.88;12.40;;;15.00;84.30;;;13.85;100.00;96218.09;6066760;23;20015;-72
2023/09/28 02:41:17;;;;;;;12.15;10.65;;;14.90;84.40;;;13.85;100.00;96231.31;6067074;23;20015;-72
2023/09/28 02:43:42;;;;;;;12.65;10.95;;;14.90;84.20;;;13.83;100.00;96226.25;6047196;23;20021;-60
2023/09/28 02:46:08;;;;;;;13.40;12.00;;;14.90;84.00;;;13.81;100.00;96233.56;6069790;23;20204;-60
2023/09/28 02:48:34;;;;;;;12.35;11.02;;;14.90;84.40;;;13.79;100.00;96230.28;6095881;23;20570;-61
2023/09/28 02:51:02;;;;;;;13.15;11.68;;;14.90;84.40;;;13.78;100.00;96229.47;6075736;23;20100;-60
2023/09/28 02:53:29;;;;;;;14.13;11.93;;;14.90;84.40;;;13.77;100.00;96229.69;6123652;23;20069;-60
2023/09/28 02:55:55;;;;;;;13.25;11.95;;;14.90;84.40;;;13.77;100.00;96234.97;6124297;23;20068;-60
2023/09/28 02:58:22;;;;;;;13.68;12.27;;;14.90;84.40;;;13.78;100.00;96236.59;6098713;23;20014;-61
2023/09/28 03:00:48;;;;;;;14.10;12.63;;;14.90;84.50;;;13.78;100.00;96231.31;6099971;23;20396;-60
2023/09/28 03:03:14;;;;;;;16.05;12.25;;;14.80;84.70;;;13.75;100.00;96237.81;6074530;23;20218;-60
2023/09/28 03:05:40;;;;;;;14.15;12.38;;;14.80;84.60;;;13.73;100.00;96236.41;6123197;23;20021;-61
2023/09/28 03:08:11;;;;;;;15.35;12.27;;;14.70;85.20;;;13.73;100.00;96244.34;6098361;23;20053;-61
2023/09/28 03:10:44;;;;;;;12.75;11.45;;;14.80;84.90;;;13.71;100.00;96241.09;6101192;23;20111;-61
2023/09/28 03:13:11;;;;;;;13.55;12.13;;;14.80;84.80;;;13.68;100.00;96236.22;6096493;23;20005;-61
2023/09/28 03:15:44;;;;;;;14.48;11.65;;;14.80;84.70;;;13.66;100.00;96235.59;6098629;23;20017;-61
2023/09/28 03:18:10;;;;;;;13.15;11.82;;;14.70;85.30;;;13.65;100.00;96239.28;6124225;23;20013;-60
2023/09/28 03:20:36;;;;;;;13.50;11.60;;;14.70;85.30;;;13.63;100.00;96243.94;6099061;23;20021;-60
2023/09/28 03:23:06;;;;;;;22.63;18.02;;;14.70;85.70;;;13.62;100.00;96242.31;6098679;23;20025;-60
2023/09/28 03:25:32;;;;;;;32.53;29.20;;;14.70;85.90;;;13.64;100.00;96235.00;6099307;23;20009;-60
2023/09/28 03:27:58;;;;;;;25.67;22.80;;;14.70;85.80;;;13.65;100.00;96237.44;6123767;23;20350;-61
2023/09/28 03:30:25;;;;;;;15.43;13.82;;;14.80;85.70;;;13.67;100.00;96245.16;6122676;23;20021;-60
2023/09/28 03:32:50;;;;;;;14.68;12.57;;;14.80;85.50;;;13.66;100.00;96251.47;6123123;23;20103;-60
2023/09/28 03:35:17;;;;;;;18.55;16.60;;;14.80;85.30;;;13.67;100.00;96247.81;6122695;23;20554;-60
2023/09/28 03:37:43;;;;;;;13.77;12.07;;;14.80;85.20;;;13.66;100.00;96248.81;6069546;23;20033;-61
2023/09/28 03:40:10;;;;;;;14.30;12.32;;;14.80;85.30;;;13.64;100.00;96240.28;6070146;23;20013;-60
2023/09/28 03:42:41;;;;;;;13.10;11.70;;;14.70;85.40;;;13.61;100.00;96241.50;6097154;23;20871;-60
2023/09/28 03:45:11;;;;;;;13.52;12.13;;;14.70;85.50;;;13.62;100.00;96252.91;6098092;23;20457;-61
2023/09/28 03:47:41;;;;;;;13.98;11.30;;;14.70;85.50;;;13.59;100.00;96237.44;6098704;23;20029;-60
2023/09/28 03:50:09;;;;;;;12.70;11.50;;;14.80;85.10;;;13.60;100.00;96249.66;6123173;23;20101;-60
2023/09/28 03:52:37;;;;;;;20.50;16.83;;;14.70;85.00;;;13.59;100.00;96248.03;6098447;23;20348;-60
2023/09/28 03:55:04;;;;;;;18.45;16.13;;;14.70;85.10;;;13.58;100.00;96243.72;6123539;23;20108;-61
2023/09/28 03:57:30;;;;;;;16.52;14.40;;;14.80;85.10;;;13.57;100.00;96240.28;6122983;23;20020;-60
2023/09/28 03:59:56;;;;;;;25.50;22.80;;;14.80;84.90;;;13.57;100.00;96250.03;6098696;23;20017;-61
2023/09/28 04:02:26;;;;;;;21.77;18.48;;;14.70;85.00;;;13.57;100.00;96250.84;6098703;23;20013;-61
2023/09/28 04:04:52;;;;;;;18.02;16.23;;;14.70;84.90;;;13.56;100.00;96253.69;6123113;23;20018;-60
2023/09/28 04:07:18;;;;;;;13.48;10.82;;;14.70;84.90;;;13.56;100.00;96253.69;6147864;23;20112;-61
2023/09/28 04:09:44;;;;;;;14.15;11.60;;;14.70;84.70;;;13.53;100.00;96254.09;6146896;23;20120;-60
2023/09/28 04:12:10;;;;;;;12.05;10.85;;;14.60;84.80;;;13.51;100.00;96264.06;6122929;23;20100;-60
2023/09/28 04:14:36;;;;;;;12.07;10.63;;;14.60;84.90;;;13.48;100.00;96260.00;6071105;23;20553;-61
2023/09/28 04:17:02;;;;;;;11.65;10.45;;;14.60;84.90;;;13.46;100.00;96262.84;6098820;23;20041;-60
2023/09/28 04:19:27;;;;;;;15.30;10.35;;;14.60;84.80;;;13.44;100.00;96264.88;6147185;23;20037;-60
2023/09/28 04:21:53;;;;;;;12.65;10.48;;;14.60;85.00;;;13.43;100.00;96265.09;6123672;23;20029;-62
2023/09/28 04:24:19;;;;;;;10.85;9.75;;;14.50;85.20;;;13.42;100.00;96266.91;6122586;23;20052;-66
2023/09/28 04:26:45;;;;;;;11.73;9.88;;;14.60;84.90;;;13.39;100.00;96262.03;6073741;23;20100;-64
2023/09/28 04:29:10;;;;;;;13.25;10.35;;;14.60;84.90;;;13.37;100.00;96266.72;6122481;23;20041;-62
2023/09/28 04:31:36;;;;;;;11.80;10.60;;;14.60;84.80;;;13.35;100.00;96260.81;6122274;23;20152;-66
2023/09/28 04:34:02;;;;;;;27.10;24.27;;;14.50;85.00;;;13.35;100.00;96263.47;6123076;23;20180;-65
2023/09/28 04:36:28;;;;;;;16.15;14.60;;;14.60;85.10;;;13.34;100.00;96267.09;6146866;23;20159;-62
2023/09/28 04:38:54;;;;;;;16.05;11.15;;;14.60;85.20;;;13.33;100.00;96262.81;6123022;23;20535;-63
2023/09/28 04:41:20;;;;;;;13.05;11.65;;;14.50;85.00;;;13.32;100.00;96266.47;6102438;23;20013;-61
2023/09/28 04:43:45;;;;;;;12.50;11.18;;;14.60;85.00;;;13.32;100.00;96263.84;6121432;23;20103;-61
2023/09/28 04:46:11;;;;;;;13.07;11.52;;;14.60;84.80;;;13.32;100.00;96265.66;6147476;23;20080;-62
2023/09/28 04:48:37;;;;;;;12.85;10.68;;;14.60;84.70;;;13.31;100.00;96272.78;6122370;23;20025;-61
2023/09/28 04:51:03;;;;;;;12.25;9.98;;;14.50;84.80;;;13.28;100.00;96273.19;6122247;23;20017;-62
2023/09/28 04:53:29;;;;;;;20.25;17.17;;;14.50;85.00;;;13.28;100.00;96275.84;6097210;23;20013;-61
2023/09/28 04:55:55;;;;;;;20.20;17.70;;;14.50;85.00;;;13.26;100.00;96275.22;6146684;23;20177;-62
2023/09/28 04:58:21;;;;;;;16.70;11.77;;;14.40;85.00;;;13.24;100.00;96274.63;6146590;23;20029;-61
2023/09/28 05:00:47;;;;;;;28.10;22.95;;;14.40;84.90;;;13.21;100.00;96275.00;6171416;23;20395;-62
2023/09/28 05:03:13;;;;;;;14.85;12.35;;;14.40;84.70;;;13.20;100.00;96270.75;6146249;23;20467;-63
2023/09/28 05:05:39;;;;;;;11.05;9.80;;;14.40;84.70;;;13.20;100.00;96283.97;6146162;23;20076;-62
2023/09/28 05:08:05;;;;;;;12.77;11.05;;;14.40;84.70;;;13.19;100.00;96277.03;6146352;23;20044;-62
2023/09/28 05:10:31;;;;;;;14.43;12.93;;;14.40;84.60;;;13.18;100.00;96283.34;6147112;23;20014;-63
2023/09/28 05:12:58;;;;;;;17.35;14.35;;;14.40;84.30;;;13.17;100.00;96273.75;6170370;23;20396;-65
2023/09/28 05:15:24;;;;;;;24.80;22.15;;;14.40;84.40;;;13.16;100.00;96277.41;6118266;23;20370;-63
2023/09/28 05:17:49;;;;;;;12.75;11.32;;;14.40;84.40;;;13.15;100.00;96273.97;6119819;23;20017;-64
2023/09/28 05:20:15;;;;;;;11.85;10.05;;;14.30;84.90;;;13.15;100.00;96273.16;6169484;23;20414;-66
2023/09/28 05:22:43;;;;;;;13.10;9.18;;;14.40;84.80;;;13.16;100.00;96280.06;6144246;23;20041;-66
2023/09/28 05:25:09;;;;;;;11.15;9.95;;;14.40;84.60;;;13.15;100.00;96278.44;6146608;23;20013;-65
2023/09/28 05:27:35;;;;;;;17.42;13.00;;;14.40;84.70;;;13.15;100.00;96278.44;6169586;23;20701;-64
2023/09/28 05:30:01;;;;;;;14.05;11.98;;;14.40;84.60;;;13.16;100.00;96277.41;6145528;23;20026;-68
2023/09/28 05:32:27;;;;;;;43.92;36.90;;;14.50;84.60;;;13.17;100.00;96281.69;6170107;23;20037;-67
2023/09/28 05:34:53;;;;;;;21.85;19.45;;;14.50;84.70;;;13.19;100.00;96277.03;6148716;23;20052;-68
2023/09/28 05:37:19;;;;;;;12.52;11.23;;;14.60;84.60;;;13.22;100.00;96279.28;6124395;23;20045;-67
2023/09/28 05:39:44;;;;;;;11.50;10.38;;;14.60;84.50;;;13.25;100.00;96286.81;6118152;23;20092;-67
2023/09/28 05:42:10;;;;;;;10.68;9.38;;;14.70;84.40;;;13.27;100.00;96292.69;6140461;23;20017;-61
2023/09/28 05:44:36;;;;;;;10.73;9.35;;;14.60;84.20;;;13.28;100.00;96286.41;6122200;23;20366;-63
2023/09/28 05:47:02;;;;;;;11.00;9.00;;;14.70;84.10;;;13.30;100.00;96294.94;6120752;23;20132;-62
2023/09/28 05:49:27;;;;;;;15.27;9.90;;;14.60;84.20;;;13.32;100.00;96289.44;6148867;23;20006;-62
2023/09/28 05:51:53;;;;;;;12.88;10.50;;;14.70;84.00;;;13.35;100.00;96291.69;6123493;23;20041;-62
2023/09/28 05:54:19;;;;;;;11.25;9.35;;;14.80;83.90;;;13.40;100.00;96295.38;6147033;23;20032;-62
2023/09/28 05:56:45;;;;;;;9.98;8.95;;;14.80;83.90;;;13.44;100.00;96298.41;6147230;23;20360;-63
2023/09/28 05:59:11;;;;;;;10.88;9.10;;;14.80;83.80;;;13.48;100.00;96300.44;6122855;23;20017;-62
2023/09/28 06:01:37;;;;;;;11.10;8.82;;;15.00;83.60;;;13.52;100.00;96305.34;6098901;23;20036;-64
2023/09/28 06:04:04;;;;;;;10.57;8.57;;;15.00;83.60;;;13.56;100.00;96303.91;6148082;23;20036;-63
2023/09/28 06:06:30;;;;;;;9.57;8.68;;;15.10;83.50;;;13.58;100.00;96304.50;6098509;23;20497;-63
2023/09/28 06:08:55;;;;;;;10.93;8.65;;;15.00;83.70;;;13.65;100.00;96305.34;6147346;23;20041;-63
2023/09/28 06:11:21;;;;;;;9.48;8.52;;;15.10;83.50;;;13.68;100.00;96304.94;6147700;23;20013;-63
2023/09/28 06:13:47;;;;;;;9.65;8.75;;;15.10;83.40;;;13.71;100.00;96308.00;6120510;23;20448;-63
2023/09/28 06:16:13;;;;;;;11.05;9.90;;;15.20;83.10;;;13.78;100.00;96305.34;6148183;23;20024;-63
2023/09/28 06:18:40;;;;;;;11.77;9.77;;;15.30;83.00;;;13.85;100.00;96292.94;6122353;23;20025;-63
2023/09/28 06:21:06;;;;;;;11.25;8.85;;;15.40;82.90;;;13.94;100.00;96299.63;6122860;23;20068;-63
2023/09/28 06:23:33;;;;;;;9.45;8.55;;;15.50;82.60;;;14.01;100.00;96300.44;6122487;23;20017;-66
2023/09/28 06:25:59;;;;;;;9.15;7.88;;;15.70;82.40;;;14.10;100.00;96301.88;6098423;23;20069;-64
2023/09/28 06:28:25;;;;;;;11.20;8.05;;;15.80;82.00;;;14.20;100.00;96303.25;6122411;23;20506;-64
2023/09/28 06:30:53;;;;;;;9.68;8.23;;;15.80;81.80;;;14.29;100.00;96313.44;6172283;23;20128;-63
2023/09/28 06:33:19;;;;;;;8.57;7.57;;;16.00;81.40;;;14.35;100.00;96306.50;6145196;23;20025;-64
2023/09/28 06:35:44;;;;;;;9.48;7.45;;;16.00;81.40;;;14.43;100.00;96302.81;6122910;23;20340;-64
2023/09/28 06:38:11;;;;;;;9.60;7.72;;;16.10;80.80;;;14.51;100.00;96311.38;6146868;23;20033;-64
2023/09/28 06:40:39;;;;;;;8.05;6.70;;;16.20;80.80;;;14.59;100.00;96307.69;6147378;23;20009;-63
2023/09/28 06:43:04;;;;;;;6.90;6.18;;;16.40;80.70;;;14.70;100.00;96307.84;6147466;23;20002;-63
2023/09/28 06:45:30;;;;;;;15.20;11.40;;;16.50;80.20;;;14.80;100.00;96306.59;6146260;23;20693;-65
2023/09/28 06:47:56;;;;;;;12.45;9.43;;;16.60;80.00;;;14.90;100.00;96315.69;6120862;23;20025;-64
2023/09/28 06:50:22;;;;;;;18.10;14.57;;;16.80;79.40;;;14.99;100.00;96319.75;6151879;23;20098;-66
2023/09/28 06:52:48;;;;;;;14.77;9.93;;;17.10;79.20;;;15.12;100.00;96326.81;6123379;23;20031;-63
2023/09/28 06:55:14;;;;;;;9.75;7.40;;;17.30;78.70;;;15.24;100.00;96322.47;6099375;23;20820;-64
2023/09/28 06:57:39;;;;;;;10.25;7.38;;;17.40;77.80;;;15.32;100.00;96322.22;6148008;23;20214;-64
2023/09/28 07:00:08;;;;;;;8.32;6.88;;;17.40;77.60;;;15.45;100.00;96325.81;6098622;23;20041;-64
2023/09/28 07:02:37;;;;;;;9.77;7.10;;;17.60;77.50;;;15.60;100.00;96326.34;6120193;23;20442;-63
2023/09/28 07:05:03;;;;;;;11.77;8.75;;;17.80;77.30;;;15.76;100.00;96330.31;6096487;23;20017;-62
2023/09/28 07:07:30;;;;;;;7.35;6.60;;;18.00;77.00;;;15.92;100.00;96325.31;6121320;23;20311;-64
2023/09/28 07:09:56;;;;;;;8.75;6.88;;;18.20;76.40;;;16.12;100.00;96326.97;6097721;23;20015;-64
2023/09/28 07:12:23;;;;;;;8.68;6.88;;;18.50;76.10;;;16.29;100.00;96330.69;6073122;23;20009;-65
2023/09/28 07:14:48;;;;;;;8.27;5.80;;;18.70;75.40;;;16.51;100.00;96331.06;6120666;23;20067;-65
2023/09/28 07:17:14;;;;;;;9.63;6.50;;;19.00;74.10;;;16.65;100.00;96335.22;6122965;23;20022;-63
2023/09/28 07:19:41;;;;;;;9.98;6.43;;;18.90;73.50;;;16.73;100.00;96348.22;6073748;23;20013;-64
2023/09/28 07:22:07;;;;;;;8.07;5.82;;;18.90;73.90;;;16.82;100.00;96348.75;6148380;23;20072;-65
2023/09/28 07:24:33;;;;;;;7.30;6.43;;;19.00;73.00;;;16.91;100.00;96347.44;6122908;23;20120;-65
2023/09/28 07:26:59;;;;;;;8.55;6.45;;;19.20;72.30;;;17.02;100.00;96353.84;6097319;23;20053;-63
2023/09/28 07:29:25;;;;;;;7.07;5.50;;;19.70;70.70;;;17.20;100.00;96358.31;6074268;23;20786;-64
2023/09/28 07:31:51;;;;;;;8.55;6.35;;;20.20;69.50;;;17.39;100.00;96363.38;6099108;23;20037;-70
2023/09/28 07:34:17;;;;;;;10.00;6.30;;;20.60;68.50;;;17.58;100.00;96361.50;6123637;23;20092;-69
2023/09/28 07:36:45;;;;;;;8.23;6.07;;;20.90;66.70;;;17.80;100.00;96364.47;6123348;23;20060;-63
2023/09/28 07:39:11;;;;;;;8.88;5.60;;;21.40;65.70;;;18.08;100.00;96363.03;6147212;23;20021;-64
2023/09/28 07:41:38;;;;;;;8.45;5.65;;;22.00;63.90;;;18.36;100.00;96364.00;6121884;23;20049;-63
2023/09/28 07:44:04;;;;;;;6.55;5.78;;;22.40;62.00;;;18.64;100.00;96365.97;6145660;23;20479;-64
2023/09/28 07:46:30;;;;;;;8.00;4.97;;;22.90;60.70;;;18.95;100.00;96370.09;6095856;23;20674;-64
2023/09/28 07:48:59;;;;;;;6.63;5.28;;;23.30;59.90;;;19.24;100.00;96376.31;6098341;23;20113;-66
2023/09/28 07:51:24;;;;;;;7.50;4.95;;;23.70;58.70;;;19.51;100.00;96370.41;6099231;23;20108;-64
2023/09/28 07:53:51;;;;;;;6.53;4.40;;;23.90;57.30;;;19.77;100.00;96375.19;6147799;23;20073;-65
2023/09/28 07:56:18;;;;;;;8.52;4.32;;;24.30;56.60;;;20.01;100.00;96370.53;6098715;23;20542;-63
2023/09/28 07:58:44;;;;;;;7.53;4.57;;;24.40;57.30;;;20.21;99.99;96370.06;6147100;23;20113;-64
2023/09/28 08:01:09;;;;;;;9.70;4.72;;;24.60;56.20;;;20.42;98.40;96371.22;6075965;23;20184;-64
2023/09/28 08:03:37;;;;;;;8.23;4.60;;;25.10;55.10;;;20.64;96.67;96358.72;6099217;23;20045;-64
2023/09/28 08:06:03;;;;;;;5.97;4.30;;;25.10;53.60;;;20.78;95.01;96364.50;6147873;23;20108;-64
2023/09/28 08:08:29;;;;;;;6.13;4.35;;;24.80;55.20;;;20.91;93.71;96368.69;6122986;23;20021;-65
2023/09/28 08:10:55;;;;;;;5.43;4.35;;;24.90;54.90;;;21.06;92.79;96366.22;6123393;23;20021;-65
2023/09/28 08:13:20;;;;;;;6.65;3.80;;;25.20;54.40;;;21.23;91.01;96366.94;6120600;23;20435;-64
2023/09/28 08:15:46;;;;;;;5.43;4.20;;;25.70;53.50;;;21.44;90.40;96367.22;6099576;23;20852;-65
2023/09/28 08:18:13;;;;;;;4.50;3.53;;;26.20;52.40;;;21.66;90.23;96370.66;6123193;23;20053;-66
2023/09/28 08:20:38;;;;;;;7.53;4.70;;;26.70;51.60;;;21.96;87.85;96370.19;6075136;23;20170;-64
2023/09/28 08:23:04;;;;;;;6.72;3.95;;;27.40;49.20;;;22.21;86.11;96358.91;6122428;23;20497;-64
2023/09/28 08:25:30;;;;;;;6.05;3.45;;;27.60;48.60;;;22.48;85.53;96356.94;6121929;23;20013;-64
2023/09/28 08:27:56;;;;;;;10.02;3.25;;;28.10;47.80;;;22.76;83.35;96346.94;6097832;23;20017;-64
2023/09/28 08:30:22;;;;;;;5.68;3.40;;;28.30;46.50;;;23.01;80.95;96349.75;6121648;23;20376;-65
2023/09/28 08:32:48;;;;;;;3.38;2.92;;;28.60;45.90;;;23.28;79.02;96348.78;6121854;23;20052;-65
2023/09/28 08:35:13;;;;;;;5.93;3.72;;;28.80;45.20;;;23.59;77.67;96347.88;6120177;23;20020;-64
2023/09/28 08:37:39;;;;;;;4.65;3.03;;;29.30;44.20;;;23.87;76.17;96340.38;6098521;23;20109;-64
2023/09/28 08:40:09;;;;;;;3.47;2.90;;;29.50;43.80;;;24.16;75.26;96333.41;6123442;23;20088;-64
2023/09/28 08:42:35;;;;;;;5.25;3.60;;;29.90;43.10;;;24.44;73.79;96334.75;6099512;23;20021;-64
2023/09/28 08:45:01;;;;;;;7.43;3.20;;;30.10;42.70;;;24.70;72.11;96339.03;6122355;23;20041;-65
2023/09/28 08:47:31;;;;;;;5.03;3.28;;;30.40;41.90;;;24.99;70.65;96341.94;6095621;23;20060;-65
2023/09/28 08:49:57;;;;;;;5.82;3.75;;;30.50;41.60;;;25.23;68.97;96333.22;6098296;23;20014;-64
2023/09/28 08:52:22;;;;;;;10.82;5.50;;;30.50;40.20;;;25.45;68.01;96339.03;6100649;23;20466;-64
2023/09/28 08:54:48;;;;;;;15.32;11.30;;;30.80;41.30;;;25.71;66.84;96330.84;6120799;23;20527;-66
2023/09/28 08:57:15;;;;;;;5.90;5.20;;;30.90;40.70;;;25.93;65.43;96323.94;6120334;23;20017;-62
2023/09/28 08:59:41;;;;;;;5.95;3.40;;;31.00;40.20;;;26.12;65.56;96324.06;6121900;23;20028;-66
2023/09/28 09:02:07;;;;;;;5.78;4.07;;;30.90;41.30;;;26.35;63.39;96308.25;6121691;23;20037;-63
2023/09/28 09:04:36;;;;;;;9.93;6.68;;;31.30;38.80;;;26.56;62.48;96304.28;6122023;23;20129;-66
2023/09/28 09:07:03;;;;;;;11.52;10.27;;;31.40;39.00;;;26.78;60.37;96306.47;6146291;23;20016;-63
2023/09/28 09:09:29;;;;;;;12.05;8.55;;;31.50;37.90;;;27.05;59.59;96305.91;6121032;23;20018;-62
2023/09/28 09:11:54;;;;;;;5.75;4.32;;;31.80;38.00;;;27.33;58.61;96302.31;6121710;23;20494;-62
2023/09/28 09:14:25;;;;;;;7.75;3.85;;;31.90;37.80;;;27.57;57.15;96291.44;6094377;23;20781;-62
2023/09/28 09:16:50;;;;;;;7.88;5.30;;;32.20;37.30;;;27.89;55.88;96292.63;6146437;23;20017;-62
2023/09/28 09:19:16;;;;;;;6.70;5.00;;;32.60;36.40;;;28.08;54.48;96276.38;6122216;23;20005;-64
2023/09/28 09:21:44;;;;;;;5.18;3.65;;;32.40;35.80;;;28.31;53.32;96272.75;6148095;23;20340;-63
2023/09/28 09:24:12;;;;;;;6.35;3.60;;;32.90;35.40;;;28.54;51.04;96254.75;6145560;23;20020;-63
2023/09/28 09:26:43;;;;;;;5.82;3.80;;;33.10;34.90;;;28.81;49.21;96248.53;6121764;23;20017;-61
2023/09/28 09:29:09;;;;;;;6.40;3.83;;;33.50;34.40;;;29.02;51.19;96266.00;6145423;23;20025;-61
2023/09/28 09:31:42;;;;;;;6.18;3.70;;;33.90;34.60;;;29.25;47.36;96234.34;6170957;23;20431;-61
2023/09/28 09:34:12;;;;;;;6.28;3.40;;;34.20;33.50;;;29.48;47.81;96246.06;6145274;23;20005;-63
2023/09/28 09:36:39;;;;;;;9.20;4.88;;;34.80;33.10;;;29.76;48.38;96247.56;6144977;23;20026;-61
2023/09/28 09:39:06;;;;;;;7.18;3.70;;;35.30;31.90;;;30.01;47.51;96238.00;6120953;23;20447;-61
2023/09/28 09:41:44;;;;;;;5.13;3.40;;;35.70;31.70;;;30.28;43.93;96215.34;6145139;23;20033;-62
2023/09/28 09:44:11;;;;;;;4.68;3.30;;;36.50;30.60;;;30.51;46.02;96232.38;6119402;23;20344;-62
2023/09/28 09:46:37;;;;;;;6.72;3.50;;;36.80;29.50;;;30.75;46.58;96224.66;6142734;23;20017;-62
2023/09/28 09:49:02;;;;;;;7.30;3.58;;;37.70;29.20;;;31.00;46.15;96228.56;6120037;23;20627;-63
2023/09/28 09:51:28;;;;;;;6.57;3.75;;;38.40;28.00;;;31.28;45.53;96225.63;6144798;23;20413;-63
2023/09/28 09:53:54;;;;;;;6.07;3.35;;;39.10;26.30;;;31.63;44.89;96226.41;6119270;23;20036;-62
2023/09/28 09:56:20;;;;;;;6.72;3.95;;;39.90;25.80;;;31.90;45.18;96226.09;6120114;23;20064;-63
2023/09/28 09:58:49;;;;;;;8.10;3.60;;;40.80;25.20;;;32.32;43.89;96217.38;6121278;23;20029;-64
2023/09/28 10:01:16;;;;;;;;;;;41.40;24.10;;;32.72;37.70;96166.91;6146028;23;20006;-66
2023/09/28 10:03:46;;;;;;;5.85;3.50;;;42.10;23.40;;;33.08;41.29;96198.31;6145717;23;19908;-62